< Typhoon 198616 1986 Season Typhoon 198618 >
Typhoon 198617 (BEN)
General InformationTrack Information on Google MapsDetailed Wind InformationList of All Images || Disaster Info.ResourceGoogle EarthGE AnimationAtom FeedGeoJSON
Detalied Best Track (Time Zone = UTC)
Year Month Day Hour Lat. Long. Pressure (hPa) Wind (kt) Class Image Chart
1986 9 18 00 10.0 162.5 1006 0 2 Image Chart
1986 9 18 06 10.1 161.8 1006 0 2 Image Chart
1986 9 18 12 10.3 161.2 1004 0 2 Image Chart
1986 9 18 18 10.5 160.6 1002 0 2 Image Chart
1986 9 19 00 10.7 160.1 1000 0 2 Image Chart
1986 9 19 06 11.0 159.7 998 35 3 Image Chart
1986 9 19 12 11.8 159.2 996 35 3 Image Chart
1986 9 19 18 12.8 159.0 996 35 3 Image Chart
1986 9 20 00 13.9 158.7 996 40 3 Image Chart
1986 9 20 06 15.2 157.6 994 45 3 Image Chart
1986 9 20 12 16.0 156.2 994 45 3 Image Chart
1986 9 20 18 16.1 155.0 990 50 4 Image Chart
1986 9 21 00 16.1 153.9 985 50 4 Image Chart
1986 9 21 06 16.2 153.2 985 55 4 Image Chart
1986 9 21 12 16.3 152.6 985 65 5 Image Chart
1986 9 21 18 16.6 152.1 985 65 5 Image Chart
1986 9 22 00 16.8 151.7 990 55 4 Image Chart
1986 9 22 06 16.8 151.2 992 55 4 Image Chart
1986 9 22 12 16.8 150.7 992 55 4 Image Chart
1986 9 22 18 17.0 149.5 990 45 3 Image Chart
1986 9 23 00 17.2 148.5 985 55 4 Image Chart
1986 9 23 06 17.6 147.1 975 60 4 Image Chart
1986 9 23 12 17.9 145.6 970 65 5 Image Chart
1986 9 23 18 18.2 144.4 960 70 5 Image Chart
1986 9 24 00 18.2 143.6 950 80 5 Image Chart
1986 9 24 06 18.7 142.5 940 80 5 Image Chart
1986 9 24 12 19.0 141.5 925 90 5 Image Chart
1986 9 24 18 19.4 140.6 920 95 5 Image Chart
1986 9 25 00 19.6 140.0 920 95 5 Image Chart
1986 9 25 06 20.0 139.7 925 100 5 Image Chart
1986 9 25 12 20.5 139.0 930 95 5 Image Chart
1986 9 25 18 20.9 138.8 935 90 5 Image Chart
1986 9 26 00 21.2 138.7 935 90 5 Image Chart
1986 9 26 06 21.4 138.6 940 90 5 Image Chart
1986 9 26 12 21.6 138.7 945 85 5 Image Chart
1986 9 26 18 21.9 138.9 950 75 5 Image Chart
1986 9 27 00 22.2 139.0 950 80 5 Image Chart
1986 9 27 06 22.5 139.3 950 80 5 Image Chart
1986 9 27 12 23.0 139.7 955 75 5 Image Chart
1986 9 27 18 23.8 140.1 955 75 5 Image Chart
1986 9 28 00 24.9 140.6 955 85 5 Image Chart
1986 9 28 06 26.0 141.3 955 85 5 Image Chart
1986 9 28 12 27.3 142.1 955 80 5 Image Chart
1986 9 28 18 29.0 142.6 955 80 5 Image Chart
1986 9 29 00 30.6 143.1 960 75 5 Image Chart
1986 9 29 06 32.5 144.5 960 75 5 Image Chart
1986 9 29 12 35.0 146.6 960 75 5 Image Chart
1986 9 29 18 36.5 149.0 965 65 5 Image Chart
1986 9 30 00 37.8 151.3 970 55 4 Image Chart
1986 9 30 06 39.3 153.8 970 55 4 Image Chart
1986 9 30 12 40.0 157.0 972 0 6 Image Chart
1986 9 30 18 41.0 160.0 976 0 6 Image Chart
1986 10 1 00 42.0 163.0 980 0 6 Image Chart
1986 10 1 06 42.0 167.0 980 0 6 Image Chart
1986 10 1 12 42.0 170.0 980 0 6 Image Chart
1986 10 1 18 42.0 173.0 980 0 6 Image Chart
1986 10 2 00 42.0 176.0 980 0 6 Image Chart
1986 10 2 06 41.0 180.0 980 0 6 Image Chart
Japan Meteorological Agency Best Track Data | Correction Date : 1992-10-21
< Typhoon 198616 1986 Season Typhoon 198618 >

Help